Time;durP1;ratioP1;P1;durP2;ratioP2;P2;SDS_P1;SDS_P2;PMS_P1;PMS_P2;Temp;Humidity;BMP_temperature;BMP_pressure;BME280_temperature;BME280_humidity;BME280_pressure;Samples;Min_cycle;Max_cycle;Signal;HPM_P1;HPM_P2
2021/08/05 00:02:17;;;;;;;9.77;8.97;;;16.50;99.90;;;;;;6158779;23;20602;-69
2021/08/05 00:04:46;;;;;;;8.73;8.03;;;16.50;99.90;;;;;;6196938;23;20766;-69
2021/08/05 00:07:14;;;;;;;9.17;8.27;;;16.50;99.90;;;;;;6160116;23;20484;-69
2021/08/05 00:09:43;;;;;;;9.50;8.80;;;16.50;99.90;;;;;;6186532;23;20395;-69
2021/08/05 00:12:12;;;;;;;10.20;9.43;;;16.40;99.90;;;;;;6196448;23;20420;-69
2021/08/05 00:14:42;;;;;;;9.30;8.60;;;16.40;99.90;;;;;;6160156;23;20418;-69
2021/08/05 00:17:12;;;;;;;9.60;8.83;;;16.30;99.90;;;;;;6160143;23;20402;-69
2021/08/05 00:19:41;;;;;;;10.33;9.43;;;16.30;99.90;;;;;;6196333;23;20392;-69
2021/08/05 00:22:09;;;;;;;9.27;8.57;;;16.30;99.90;;;;;;6186637;23;20728;-69
2021/08/05 00:24:37;;;;;;;9.43;8.67;;;16.30;99.90;;;;;;6196381;23;20402;-69
2021/08/05 00:27:06;;;;;;;10.23;9.18;;;16.30;99.90;;;;;;6186801;23;20406;-69
2021/08/05 00:29:34;;;;;;;10.47;9.67;;;16.20;99.90;;;;;;6160145;23;20175;-69
2021/08/05 00:32:03;;;;;;;9.80;9.10;;;16.30;99.90;;;;;;6186594;23;20407;-69
2021/08/05 00:34:33;;;;;;;9.17;8.43;;;16.20;99.90;;;;;;6160024;23;20419;-69
2021/08/05 00:37:01;;;;;;;9.80;9.10;;;16.20;99.90;;;;;;6160068;23;20466;-69
2021/08/05 00:39:30;;;;;;;9.83;9.03;;;16.20;99.90;;;;;;6159910;23;20416;-69
2021/08/05 00:41:58;;;;;;;9.47;8.77;;;16.20;99.90;;;;;;6154754;23;20481;-69
2021/08/05 00:44:27;;;;;;;9.97;9.17;;;16.10;99.90;;;;;;6154780;23;20388;-69
2021/08/05 00:46:55;;;;;;;10.23;9.43;;;16.20;99.90;;;;;;6166212;23;20396;-69
2021/08/05 00:49:23;;;;;;;9.93;9.20;;;16.20;99.90;;;;;;6154918;23;20407;-69
2021/08/05 00:51:53;;;;;;;11.40;10.60;;;16.10;99.90;;;;;;6154684;23;20404;-69
2021/08/05 00:54:22;;;;;;;10.37;9.57;;;16.10;99.90;;;;;;6166318;23;20460;-69
2021/08/05 00:56:50;;;;;;;11.23;10.30;;;16.10;99.90;;;;;;6167212;23;20378;-69
2021/08/05 00:59:19;;;;;;;10.60;9.73;;;16.10;99.90;;;;;;6154775;23;20419;-69
2021/08/05 01:01:51;;;;;;;11.93;11.02;;;16.00;99.90;;;;;;6154358;23;20875;-69
2021/08/05 01:04:20;;;;;;;10.80;9.87;;;16.00;99.90;;;;;;6154903;23;20597;-69
2021/08/05 01:06:57;;;;;;;12.60;11.60;;;16.10;99.90;;;;;;6154861;23;20406;-69
2021/08/05 01:09:33;;;;;;;12.07;11.07;;;16.10;99.90;;;;;;6156332;23;20429;-69
2021/08/05 01:12:08;;;;;;;13.07;11.97;;;16.00;99.90;;;;;;6156194;23;20406;-69
2021/08/05 01:14:39;;;;;;;13.03;11.90;;;16.00;99.90;;;;;;6154628;23;20441;-69
2021/08/05 01:17:09;;;;;;;13.63;12.53;;;16.00;99.90;;;;;;6154722;23;20882;-69
2021/08/05 01:19:43;;;;;;;14.50;12.60;;;16.00;99.90;;;;;;6154637;23;20413;-69
2021/08/05 01:22:27;;;;;;;14.80;13.67;;;16.00;99.90;;;;;;6155478;23;20435;-69
2021/08/05 01:25:00;;;;;;;14.30;13.20;;;16.00;99.90;;;;;;6154326;23;20386;-69
2021/08/05 01:27:31;;;;;;;14.03;12.90;;;15.90;99.90;;;;;;6154529;23;20398;-69
2021/08/05 01:30:00;;;;;;;16.50;15.20;;;16.00;99.90;;;;;;6166293;23;20387;-69
2021/08/05 01:32:29;;;;;;;15.43;14.20;;;15.90;99.90;;;;;;6156290;23;20399;-69
2021/08/05 01:34:58;;;;;;;15.60;14.30;;;15.90;99.90;;;;;;6155732;23;20395;-69
2021/08/05 01:37:28;;;;;;;18.08;16.55;;;15.90;99.90;;;;;;6153629;23;20413;-69
2021/08/05 01:39:56;;;;;;;15.30;14.13;;;16.00;99.90;;;;;;6166809;23;20165;-70
2021/08/05 01:42:25;;;;;;;17.27;15.97;;;16.00;99.90;;;;;;6195223;23;20508;-69
2021/08/05 01:44:56;;;;;;;17.83;16.33;;;16.00;99.90;;;;;;6159086;23;20953;-69
2021/08/05 01:47:26;;;;;;;18.83;17.27;;;16.00;99.90;;;;;;6195966;23;20359;-69
2021/08/05 01:49:55;;;;;;;18.27;16.63;;;16.00;99.90;;;;;;6159160;23;20442;-69
2021/08/05 01:52:23;;;;;;;17.20;15.80;;;16.00;99.90;;;;;;6195772;23;20897;-69
2021/08/05 01:54:52;;;;;;;16.73;15.33;;;15.90;99.90;;;;;;6159307;23;20727;-69
2021/08/05 01:57:21;;;;;;;16.10;14.70;;;15.90;99.90;;;;;;6160162;23;20408;-69
2021/08/05 01:59:49;;;;;;;15.83;14.53;;;15.90;99.90;;;;;;6159467;23;20430;-69
2021/08/05 02:02:18;;;;;;;16.00;14.70;;;15.90;99.90;;;;;;6158998;23;20456;-69
2021/08/05 02:04:58;;;;;;;16.67;15.13;;;15.90;99.90;;;;;;6159074;23;20386;-69
2021/08/05 02:07:30;;;;;;;18.05;16.55;;;15.80;99.90;;;;;;6158139;23;20530;-69
2021/08/05 02:10:02;;;;;;;17.20;15.80;;;15.90;99.90;;;;;;6158908;23;20436;-69
2021/08/05 02:12:34;;;;;;;18.33;16.92;;;15.90;99.90;;;;;;6158216;23;20406;-69
2021/08/05 02:15:04;;;;;;;17.70;16.23;;;15.90;99.90;;;;;;6195452;23;20153;-69
2021/08/05 02:17:38;;;;;;;18.00;16.47;;;15.90;99.90;;;;;;6159022;23;20386;-69
2021/08/05 02:20:08;;;;;;;17.80;16.13;;;15.90;99.90;;;;;;6159025;23;20490;-69
2021/08/05 02:22:40;;;;;;;17.67;16.27;;;15.80;99.90;;;;;;6159026;23;20418;-69
2021/08/05 02:25:10;;;;;;;16.37;15.13;;;15.80;99.90;;;;;;6195626;23;20413;-69
2021/08/05 02:27:40;;;;;;;17.50;16.00;;;15.70;99.90;;;;;;6158830;23;20452;-69
2021/08/05 02:30:11;;;;;;;16.20;14.90;;;15.70;99.90;;;;;;6158681;23;20410;-69
2021/08/05 02:32:41;;;;;;;16.90;15.50;;;15.70;99.90;;;;;;6195009;23;20394;-69
2021/08/05 02:35:12;;;;;;;16.33;15.00;;;15.70;99.90;;;;;;6159027;23;20389;-69
2021/08/05 02:37:41;;;;;;;16.43;15.13;;;15.60;99.90;;;;;;6159208;23;20412;-69
2021/08/05 02:40:11;;;;;;;16.43;15.03;;;15.60;99.90;;;;;;6195168;23;20367;-69
2021/08/05 02:42:40;;;;;;;14.90;13.80;;;15.60;99.90;;;;;;6195187;23;20408;-69
2021/08/05 02:45:09;;;;;;;15.30;14.00;;;15.50;99.90;;;;;;6159079;23;20963;-69
2021/08/05 02:47:38;;;;;;;17.03;15.47;;;15.50;99.90;;;;;;6158793;23;20447;-69
2021/08/05 02:50:09;;;;;;;16.90;15.47;;;15.50;99.90;;;;;;6159041;23;20447;-69
2021/08/05 02:52:39;;;;;;;16.20;14.80;;;15.50;99.90;;;;;;6158862;23;20992;-69
2021/08/05 02:55:09;;;;;;;17.57;16.13;;;15.50;99.90;;;;;;6159031;23;20875;-69
2021/08/05 02:57:38;;;;;;;16.97;15.67;;;15.40;99.90;;;;;;6195433;23;20406;-69
2021/08/05 03:00:08;;;;;;;17.97;16.37;;;15.40;99.90;;;;;;6195008;23;20764;-69
2021/08/05 03:02:37;;;;;;;15.70;14.50;;;15.40;99.90;;;;;;6158625;23;20451;-69
2021/08/05 03:05:09;;;;;;;16.63;15.10;;;15.30;99.90;;;;;;6195140;23;20398;-69
2021/08/05 03:07:38;;;;;;;15.30;14.10;;;15.30;99.90;;;;;;6195470;23;20802;-69
2021/08/05 03:10:08;;;;;;;15.93;14.63;;;15.30;99.90;;;;;;6194758;23;20450;-69
2021/08/05 03:12:36;;;;;;;16.03;14.73;;;15.30;99.90;;;;;;6195251;23;20866;-69
2021/08/05 03:15:06;;;;;;;16.63;15.00;;;15.20;99.90;;;;;;6158776;23;20412;-69
2021/08/05 03:17:35;;;;;;;16.65;15.35;;;15.20;99.90;;;;;;6185115;23;20708;-69
2021/08/05 03:20:04;;;;;;;17.10;15.60;;;15.20;99.90;;;;;;6184957;23;20176;-69
2021/08/05 03:22:34;;;;;;;16.90;15.50;;;15.20;99.90;;;;;;6194565;23;20403;-69
2021/08/05 03:25:02;;;;;;;15.17;13.97;;;15.20;99.90;;;;;;6195694;23;20396;-69
2021/08/05 03:27:30;;;;;;;15.90;14.60;;;15.20;99.90;;;;;;6195690;23;20446;-69
2021/08/05 03:29:58;;;;;;;16.17;14.87;;;15.20;99.90;;;;;;6194946;23;20402;-69
2021/08/05 03:32:28;;;;;;;15.53;14.33;;;15.10;99.90;;;;;;6194953;23;20503;-69
2021/08/05 03:34:56;;;;;;;15.37;14.17;;;15.10;99.90;;;;;;6158555;23;20748;-69
2021/08/05 03:37:25;;;;;;;17.57;15.97;;;15.10;99.90;;;;;;6195057;23;20392;-69
2021/08/05 03:39:55;;;;;;;16.33;14.83;;;15.00;99.90;;;;;;6184892;23;20445;-69
2021/08/05 03:42:23;;;;;;;16.53;15.10;;;15.00;99.90;;;;;;6184835;23;20426;-69
2021/08/05 03:44:51;;;;;;;15.83;14.40;;;15.00;99.90;;;;;;6196540;23;20838;-69
2021/08/05 03:47:20;;;;;;;17.00;15.60;;;15.00;99.90;;;;;;6196751;23;20396;-69
2021/08/05 03:49:48;;;;;;;15.07;13.80;;;15.00;99.90;;;;;;6160640;23;20414;-69
2021/08/05 03:52:16;;;;;;;16.00;14.70;;;15.00;99.90;;;;;;6160233;23;20721;-69
2021/08/05 03:55:04;;;;;;;18.65;17.10;;;15.00;99.90;;;;;;6185804;23;20403;-69
2021/08/05 03:57:32;;;;;;;17.33;15.93;;;15.00;99.90;;;;;;6197106;23;20168;-69
2021/08/05 04:00:00;;;;;;;18.10;16.70;;;15.00;99.90;;;;;;6195618;23;20725;-69
2021/08/05 04:02:38;;;;;;;17.00;15.40;;;15.10;99.90;;;;;;6186731;23;20267;-69
2021/08/05 04:05:08;;;;;;;15.93;14.73;;;15.10;99.90;;;;;;6186824;23;20403;-69
2021/08/05 04:07:36;;;;;;;17.70;16.10;;;15.00;99.90;;;;;;6196995;23;20479;-69
2021/08/05 04:10:07;;;;;;;17.67;16.27;;;15.00;99.90;;;;;;6196517;23;20403;-69
2021/08/05 04:12:35;;;;;;;16.40;15.10;;;15.00;99.90;;;;;;6196760;23;20398;-69
2021/08/05 04:15:04;;;;;;;16.43;15.13;;;15.00;99.90;;;;;;6196515;23;20406;-69
2021/08/05 04:17:33;;;;;;;16.90;15.50;;;15.00;99.90;;;;;;6186332;23;20941;-69
2021/08/05 04:20:01;;;;;;;16.90;15.50;;;15.00;99.90;;;;;;6160099;23;20489;-69
2021/08/05 04:22:29;;;;;;;18.93;17.33;;;15.00;99.90;;;;;;6196402;23;20753;-69
2021/08/05 04:24:57;;;;;;;19.70;18.10;;;15.00;99.90;;;;;;6197174;23;20470;-69
2021/08/05 04:27:26;;;;;;;20.20;18.40;;;15.00;99.90;;;;;;6197366;23;20449;-69
2021/08/05 04:29:59;;;;;;;21.60;19.90;;;15.00;99.90;;;;;;6159958;23;20975;-69
2021/08/05 04:32:27;;;;;;;21.97;20.03;;;15.00;99.90;;;;;;6196035;23;20919;-69
2021/08/05 04:34:55;;;;;;;21.40;19.60;;;15.00;99.90;;;;;;6196426;23;20379;-69
2021/08/05 04:37:23;;;;;;;23.48;21.48;;;15.00;99.90;;;;;;6194949;23;20386;-69
2021/08/05 04:39:51;;;;;;;21.20;19.40;;;15.10;99.90;;;;;;6196385;23;20169;-70
2021/08/05 04:42:19;;;;;;;20.97;19.23;;;15.20;99.90;;;;;;6196007;23;20426;-69
2021/08/05 04:44:49;;;;;;;21.03;19.23;;;15.20;99.90;;;;;;6186713;23;20408;-69
2021/08/05 04:47:17;;;;;;;21.10;19.30;;;15.10;99.90;;;;;;6196247;23;20402;-69
2021/08/05 04:49:45;;;;;;;21.77;19.93;;;15.10;99.90;;;;;;6159754;23;20927;-69
2021/08/05 04:52:13;;;;;;;20.70;19.00;;;15.20;99.90;;;;;;6196122;23;20427;-69
2021/08/05 04:54:41;;;;;;;22.17;20.37;;;15.20;99.90;;;;;;6196171;23;20703;-69
2021/08/05 04:57:13;;;;;;;21.50;19.70;;;15.20;99.90;;;;;;6186572;23;20367;-69
2021/08/05 04:59:41;;;;;;;22.20;20.40;;;15.20;99.90;;;;;;6197166;23;20413;-69
2021/08/05 05:02:10;;;;;;;20.63;18.93;;;15.20;99.90;;;;;;6195966;23;20415;-69
2021/08/05 05:04:43;;;;;;;21.97;19.97;;;15.30;99.90;;;;;;6196438;23;20426;-69
2021/08/05 05:07:11;;;;;;;22.20;20.40;;;15.30;99.90;;;;;;6185339;23;20425;-69
2021/08/05 05:09:39;;;;;;;20.37;18.77;;;15.40;99.90;;;;;;6159734;23;20183;-68
2021/08/05 05:12:08;;;;;;;20.92;19.13;;;15.50;99.90;;;;;;6194942;23;20929;-69
2021/08/05 05:14:36;;;;;;;19.83;18.20;;;15.60;99.90;;;;;;6159759;23;20613;-69
2021/08/05 05:17:08;;;;;;;21.57;19.77;;;15.60;99.90;;;;;;6186012;23;20393;-69
2021/08/05 05:19:37;;;;;;;20.90;19.30;;;15.60;99.90;;;;;;6195737;23;20396;-68
2021/08/05 05:22:05;;;;;;;20.73;18.77;;;15.60;99.90;;;;;;6196166;23;20470;-69
2021/08/05 05:24:33;;;;;;;18.90;17.30;;;15.60;99.90;;;;;;6186098;23;20495;-69
2021/08/05 05:27:04;;;;;;;19.57;18.00;;;15.60;99.90;;;;;;6196253;23;20472;-69
2021/08/05 05:29:32;;;;;;;18.90;17.40;;;15.70;99.90;;;;;;6186465;23;20381;-69
2021/08/05 05:32:01;;;;;;;18.80;17.20;;;15.70;99.90;;;;;;6186064;23;20445;-69
2021/08/05 05:34:29;;;;;;;18.23;16.70;;;15.80;99.90;;;;;;6186218;23;20411;-69
2021/08/05 05:36:58;;;;;;;19.40;17.80;;;15.80;99.90;;;;;;6196015;23;20404;-69
2021/08/05 05:39:27;;;;;;;18.40;16.90;;;15.90;99.90;;;;;;6196064;23;20424;-69
2021/08/05 05:41:55;;;;;;;17.73;16.37;;;15.90;99.90;;;;;;6185483;23;20427;-69
2021/08/05 05:44:23;;;;;;;20.63;18.83;;;16.00;99.90;;;;;;6195098;23;20439;-69
2021/08/05 05:46:51;;;;;;;18.57;16.87;;;16.10;99.90;;;;;;6195785;23;20172;-68
2021/08/05 05:49:20;;;;;;;18.35;16.90;;;16.10;99.90;;;;;;6195969;23;20428;-69
2021/08/05 05:51:48;;;;;;;17.07;15.50;;;16.20;99.90;;;;;;6198016;23;20203;-69
2021/08/05 05:54:18;;;;;;;17.37;15.97;;;16.30;99.90;;;;;;6196291;23;20864;-69
2021/08/05 05:56:46;;;;;;;15.80;14.50;;;16.40;99.90;;;;;;6195978;23;20410;-69
2021/08/05 05:59:14;;;;;;;16.03;14.83;;;16.60;99.90;;;;;;6195761;23;20914;-69
2021/08/05 06:01:42;;;;;;;15.30;14.17;;;16.70;99.90;;;;;;6196075;23;20422;-68
2021/08/05 06:04:11;;;;;;;16.27;15.10;;;16.90;99.90;;;;;;6195880;23;20935;-69
2021/08/05 06:06:39;;;;;;;14.03;12.93;;;17.20;99.90;;;;;;6195406;23;20381;-69
2021/08/05 06:09:07;;;;;;;12.97;11.87;;;17.40;99.90;;;;;;6185624;23;20408;-69
2021/08/05 06:11:37;;;;;;;12.50;11.50;;;17.60;99.90;;;;;;6195655;23;20455;-68
2021/08/05 06:14:05;;;;;;;14.90;10.77;;;17.90;99.90;;;;;;6196407;23;20490;-68
2021/08/05 06:16:41;;;;;;;11.23;10.13;;;18.10;99.90;;;;;;6196546;23;20423;-69
2021/08/05 06:19:11;;;;;;;11.27;10.38;;;18.20;99.90;;;;;;6195409;23;20395;-68
2021/08/05 06:21:40;;;;;;;9.73;8.93;;;18.20;99.90;;;;;;6159635;23;20652;-69
2021/08/05 06:24:09;;;;;;;11.07;10.17;;;18.10;99.90;;;;;;6159078;23;20485;-68
2021/08/05 06:26:40;;;;;;;9.93;9.23;;;18.20;99.90;;;;;;6196205;23;20455;-68
2021/08/05 06:29:08;;;;;;;9.90;9.00;;;18.30;99.90;;;;;;6195922;23;20376;-69
2021/08/05 06:31:37;;;;;;;9.23;8.53;;;18.50;99.90;;;;;;6195323;23;20444;-69
2021/08/05 06:34:06;;;;;;;9.77;8.90;;;18.70;99.90;;;;;;6159364;23;20412;-68
2021/08/05 06:36:34;;;;;;;8.87;8.10;;;19.00;99.90;;;;;;6195540;23;20407;-69
2021/08/05 06:39:04;;;;;;;8.00;7.30;;;19.20;99.90;;;;;;6158960;23;20415;-69
2021/08/05 06:41:32;;;;;;;8.63;7.87;;;19.50;99.90;;;;;;6195394;23;20423;-68
2021/08/05 06:44:01;;;;;;;7.83;7.10;;;19.70;99.90;;;;;;6159104;23;20462;-68
2021/08/05 06:46:29;;;;;;;7.40;6.70;;;19.90;99.90;;;;;;6159197;23;20503;-69
2021/08/05 06:48:57;;;;;;;7.78;6.97;;;20.20;99.90;;;;;;6185195;23;20407;-69
2021/08/05 06:51:26;;;;;;;7.23;6.63;;;20.40;99.90;;;;;;6159194;23;20233;-68
2021/08/05 06:53:54;;;;;;;7.88;7.28;;;20.60;99.90;;;;;;6185553;23;20522;-69
2021/08/05 06:56:22;;;;;;;7.73;6.70;;;20.80;99.90;;;;;;6196198;23;20179;-68
2021/08/05 06:58:50;;;;;;;7.00;6.40;;;20.90;99.90;;;;;;6195621;23;20432;-68
2021/08/05 07:01:20;;;;;;;9.80;6.80;;;21.00;99.90;;;;;;6195462;23;20423;-69
2021/08/05 07:03:48;;;;;;;7.33;6.73;;;21.20;99.90;;;;;;6195339;23;20419;-69
2021/08/05 07:06:17;;;;;;;6.70;6.20;;;21.40;99.90;;;;;;6158982;23;20404;-69
2021/08/05 07:08:45;;;;;;;6.53;6.03;;;21.50;99.90;;;;;;6195872;23;20902;-68
2021/08/05 07:11:13;;;;;;;7.00;6.50;;;21.70;99.90;;;;;;6195165;23;20439;-68
2021/08/05 07:13:41;;;;;;;7.13;6.63;;;21.90;99.90;;;;;;6158951;23;20443;-69
2021/08/05 07:16:09;;;;;;;7.47;6.40;;;22.00;99.90;;;;;;6186103;23;20439;-68
2021/08/05 07:18:39;;;;;;;6.33;5.80;;;22.20;99.90;;;;;;6187241;23;20735;-70
2021/08/05 07:21:10;;;;;;;6.63;6.03;;;22.20;99.90;;;;;;6197692;23;20416;-68
2021/08/05 07:23:38;;;;;;;6.80;6.30;;;22.30;99.90;;;;;;6197217;23;20397;-69
2021/08/05 07:26:06;;;;;;;6.50;6.00;;;22.30;99.90;;;;;;6198114;23;20407;-68
2021/08/05 07:28:34;;;;;;;7.20;6.60;;;22.30;99.90;;;;;;6197601;23;20394;-69
2021/08/05 07:31:03;;;;;;;8.00;7.30;;;22.30;99.90;;;;;;6197204;23;20731;-69
2021/08/05 07:33:31;;;;;;;7.27;6.67;;;22.30;99.90;;;;;;6198614;23;20422;-69
2021/08/05 07:36:00;;;;;;;6.87;6.17;;;22.40;99.90;;;;;;6161441;23;20425;-69
2021/08/05 07:38:29;;;;;;;7.70;7.10;;;22.40;99.90;;;;;;6161711;23;20404;-69
2021/08/05 07:40:57;;;;;;;6.43;5.83;;;22.40;99.90;;;;;;6197681;23;20412;-69
2021/08/05 07:43:25;;;;;;;6.87;6.33;;;22.40;99.90;;;;;;6197797;23;20400;-69
2021/08/05 07:45:53;;;;;;;6.90;6.30;;;22.40;99.90;;;;;;6197958;23;20404;-69
2021/08/05 07:48:21;;;;;;;6.50;6.00;;;22.30;99.90;;;;;;6198055;23;20400;-69
2021/08/05 07:50:49;;;;;;;7.60;7.00;;;22.20;99.90;;;;;;6197444;23;20945;-69
2021/08/05 07:53:19;;;;;;;6.67;5.93;;;22.20;99.90;;;;;;6197639;23;20467;-69
2021/08/05 07:55:47;;;;;;;7.37;6.70;;;22.20;99.90;;;;;;6197311;23;20422;-70
2021/08/05 07:58:15;;;;;;;6.30;5.73;;;22.10;99.90;;;;;;6197707;23;20410;-69
2021/08/05 08:00:50;;;;;;;7.23;6.53;;;22.10;99.90;;;;;;6197880;23;20392;-69
2021/08/05 08:03:23;;;;;;;6.43;5.93;;;22.00;99.90;;;;;;6188099;23;20415;-69
2021/08/05 08:05:52;;;;;;;6.53;6.00;;;22.00;99.90;;;;;;6198399;23;20403;-69
2021/08/05 08:08:21;;;;;;;6.60;6.10;;;22.00;99.90;;;;;;6197873;23;20400;-70
2021/08/05 08:10:49;;;;;;;7.20;6.63;;;22.10;99.90;;;;;;6161299;23;20415;-69
2021/08/05 08:13:27;;;;;;;7.33;6.80;;;22.20;99.90;;;;;;6197682;23;20415;-69
2021/08/05 08:15:55;;;;;;;8.07;7.50;;;22.40;99.90;;;;;;6197594;23;20874;-69
2021/08/05 08:18:24;;;;;;;7.97;7.43;;;22.60;99.90;;;;;;6197525;23;20400;-69
2021/08/05 08:20:55;;;;;;;8.07;7.47;;;22.70;99.90;;;;;;6197629;23;20495;-69
2021/08/05 08:23:26;;;;;;;8.00;7.40;;;22.70;99.90;;;;;;6197471;23;20453;-69
2021/08/05 08:25:54;;;;;;;7.97;7.27;;;22.80;99.90;;;;;;6197054;23;20179;-69
2021/08/05 08:28:22;;;;;;;9.40;8.70;;;22.80;99.90;;;;;;6187106;23;20523;-69
2021/08/05 08:30:51;;;;;;;8.13;7.47;;;22.80;99.90;;;;;;6197643;23;20199;-69
2021/08/05 08:33:19;;;;;;;8.57;7.87;;;22.70;99.90;;;;;;6197300;23;20926;-69
2021/08/05 08:35:47;;;;;;;11.33;10.50;;;22.80;99.90;;;;;;6197515;23;20423;-69
2021/08/05 08:38:15;;;;;;;8.30;7.50;;;22.80;99.90;;;;;;6161061;23;20951;-69
2021/08/05 08:40:45;;;;;;;8.57;7.97;;;22.80;99.90;;;;;;6187502;23;20961;-69
2021/08/05 08:43:13;;;;;;;8.30;7.70;;;22.80;99.90;;;;;;6187623;23;20454;-69
2021/08/05 08:45:42;;;;;;;7.97;7.27;;;22.80;99.90;;;;;;6160883;23;20442;-70
2021/08/05 08:48:12;;;;;;;7.77;7.27;;;22.70;99.90;;;;;;6196077;23;20396;-70
2021/08/05 08:50:43;;;;;;;8.30;7.63;;;22.70;99.90;;;;;;6195201;23;20427;-69
2021/08/05 08:53:15;;;;;;;8.50;7.80;;;22.80;99.90;;;;;;6197138;23;20438;-69
2021/08/05 08:55:47;;;;;;;7.40;6.80;;;22.80;99.90;;;;;;6196933;23;20482;-69
2021/08/05 08:58:18;;;;;;;8.33;7.70;;;22.80;99.90;;;;;;6196510;23;20462;-69
2021/08/05 09:00:46;;;;;;;8.50;7.80;;;22.80;99.90;;;;;;6196480;23;20384;-69
2021/08/05 09:03:14;;;;;;;7.57;6.93;;;22.90;99.90;;;;;;6197261;23;20454;-69
2021/08/05 09:05:44;;;;;;;8.93;8.23;;;22.90;99.90;;;;;;6196519;23;20455;-69
2021/08/05 09:08:12;;;;;;;8.60;7.90;;;22.90;99.90;;;;;;6159490;23;20796;-69
2021/08/05 09:10:40;;;;;;;7.80;7.10;;;22.90;99.90;;;;;;6196606;23;20450;-69
2021/08/05 09:13:10;;;;;;;8.13;7.53;;;22.90;99.90;;;;;;6160263;23;20444;-69
2021/08/05 09:15:40;;;;;;;8.80;8.10;;;23.00;99.90;;;;;;6196034;23;20426;-69
2021/08/05 09:18:28;;;;;;;9.00;8.30;;;23.00;99.90;;;;;;6195623;23;20400;-69
2021/08/05 09:21:14;;;;;;;9.60;8.80;;;23.10;99.90;;;;;;6196834;23;20412;-69
2021/08/05 09:23:50;;;;;;;8.83;8.13;;;23.10;99.90;;;;;;6196793;23;20372;-69
2021/08/05 09:26:33;;;;;;;8.30;7.60;;;23.10;99.90;;;;;;6184823;23;20411;-69
2021/08/05 09:29:05;;;;;;;8.20;7.60;;;23.20;99.90;;;;;;6196944;23;20180;-69
2021/08/05 09:31:35;;;;;;;8.10;7.40;;;23.30;99.90;;;;;;6186999;23;20427;-69
2021/08/05 09:34:05;;;;;;;9.57;8.87;;;23.40;99.90;;;;;;6186379;23;20486;-70
2021/08/05 09:36:34;;;;;;;9.83;8.83;;;23.50;99.90;;;;;;6196039;23;20388;-70
2021/08/05 09:39:13;;;;;;;9.60;8.80;;;23.50;99.90;;;;;;6196300;23;20400;-69
2021/08/05 09:41:53;;;;;;;10.07;9.37;;;23.60;99.90;;;;;;6195487;23;20525;-69
2021/08/05 09:44:25;;;;;;;9.90;9.20;;;23.60;99.90;;;;;;6195825;23;20388;-70
2021/08/05 09:47:07;;;;;;;11.50;9.00;;;23.60;99.90;;;;;;6196384;23;20412;-69
2021/08/05 09:49:36;;;;;;;9.73;8.93;;;23.50;99.90;;;;;;6196896;23;20494;-70
2021/08/05 09:52:07;;;;;;;9.73;9.03;;;23.50;99.90;;;;;;6184433;23;20849;-70
2021/08/05 09:54:41;;;;;;;8.37;7.67;;;23.60;99.90;;;;;;6196055;23;20379;-70
2021/08/05 09:57:12;;;;;;;8.30;7.60;;;23.60;99.90;;;;;;6196995;23;20389;-69
2021/08/05 09:59:58;;;;;;;8.00;7.40;;;23.60;99.90;;;;;;6185621;23;20388;-70
2021/08/05 10:02:27;;;;;;;7.50;7.00;;;23.50;99.90;;;;;;6186160;23;20430;-70
2021/08/05 10:04:56;;;;;;;7.47;6.87;;;23.50;99.90;;;;;;6197081;23;20435;-70
2021/08/05 10:07:24;;;;;;;8.03;7.40;;;23.40;99.90;;;;;;6159633;23;20420;-70
2021/08/05 10:09:58;;;;;;;6.93;6.30;;;23.50;99.90;;;;;;6159327;23;20739;-70
2021/08/05 10:12:31;;;;;;;7.40;6.80;;;23.50;99.90;;;;;;6195900;23;20410;-70
2021/08/05 10:15:10;;;;;;;8.47;7.77;;;23.60;99.90;;;;;;6196663;23;20157;-70
2021/08/05 10:17:39;;;;;;;7.60;7.10;;;23.70;99.90;;;;;;6159120;23;20881;-70
2021/08/05 10:20:09;;;;;;;7.47;6.93;;;23.70;99.90;;;;;;6157903;23;20482;-70
2021/08/05 10:22:38;;;;;;;6.93;6.30;;;23.80;99.90;;;;;;6196280;23;20447;-70
2021/08/05 10:25:09;;;;;;;7.80;7.23;;;23.90;99.90;;;;;;6195770;23;20406;-69
2021/08/05 10:27:37;;;;;;;8.17;7.43;;;24.00;99.90;;;;;;6195375;23;20418;-70
2021/08/05 10:30:10;;;;;;;7.67;7.07;;;24.00;99.90;;;;;;6196752;23;20392;-70
2021/08/05 10:32:39;;;;;;;7.80;7.00;;;24.10;99.90;;;;;;6195544;23;20514;-70
2021/08/05 10:35:09;;;;;;;7.93;7.33;;;24.20;99.90;;;;;;6158893;23;20416;-70
2021/08/05 10:37:38;;;;;;;7.57;7.07;;;24.20;99.90;;;;;;6185742;23;20949;-70
2021/08/05 10:40:08;;;;;;;8.00;7.40;;;24.30;99.90;;;;;;6196029;23;20494;-70
2021/08/05 10:42:37;;;;;;;7.40;6.90;;;24.30;99.90;;;;;;6135539;23;20198;-70
2021/08/05 10:45:06;;;;;;;8.17;7.50;;;24.30;99.90;;;;;;6195655;23;20732;-70
2021/08/05 10:47:41;;;;;;;8.05;7.50;;;24.30;99.90;;;;;;6195466;23;20501;-70
2021/08/05 10:50:14;;;;;;;7.07;6.57;;;24.40;99.90;;;;;;6195870;23;20239;-70
2021/08/05 10:52:44;;;;;;;8.23;7.73;;;24.40;99.90;;;;;;6159929;23;20474;-70
2021/08/05 10:55:37;;;;;;;7.57;7.07;;;24.50;99.90;;;;;;6200302;23;20467;-70
2021/08/05 10:58:17;;;;;;;6.70;6.20;;;24.40;99.90;;;;;;6185247;23;20533;-70
2021/08/05 11:00:58;;;;;;;8.00;6.53;;;24.50;99.90;;;;;;6198790;23;20759;-70
2021/08/05 11:03:46;;;;;;;6.60;6.20;;;24.50;99.90;;;;;;6199918;23;20391;-70
2021/08/05 11:06:29;;;;;;;6.82;6.43;;;24.50;99.90;;;;;;6197895;23;20391;-70
2021/08/05 11:09:33;;;;;;;7.30;6.87;;;24.70;99.90;;;;;;6199205;23;20235;-70
2021/08/05 11:12:38;;;;;;;5.80;5.30;;;24.70;99.90;;;;;;6161976;23;20427;-70
2021/08/05 11:15:46;;;;;;;6.40;6.00;;;24.70;99.80;;;;;;6088396;23;20175;-70
2021/08/05 11:18:19;;;;;;;7.20;6.80;;;24.70;99.90;;;;;;6199209;23;20475;-70
2021/08/05 11:21:35;;;;;;;7.33;6.93;;;24.80;99.90;;;;;;6199242;23;20494;-70
2021/08/05 11:24:05;;;;;;;6.83;6.43;;;24.80;99.90;;;;;;6198564;23;20699;-70
2021/08/05 11:26:33;;;;;;;7.20;6.70;;;24.80;99.90;;;;;;6198945;23;20395;-69
2021/08/05 11:29:01;;;;;;;7.60;7.00;;;24.70;99.80;;;;;;6189804;23;20414;-70
2021/08/05 11:31:33;;;;;;;6.50;6.00;;;24.70;99.70;;;;;;6198298;23;20403;-70
2021/08/05 11:34:04;;;;;;;7.47;6.97;;;24.80;99.60;;;;;;6199172;23;20624;-70
2021/08/05 11:36:40;;;;;;;7.23;6.73;;;24.90;99.70;;;;;;6199325;23;20456;-70
2021/08/05 11:39:27;;;;;;;6.70;6.20;;;24.90;99.80;;;;;;6198183;23;20391;-70
2021/08/05 11:42:17;;;;;;;7.83;7.33;;;25.10;99.40;;;;;;6198317;23;20219;-70
2021/08/05 11:44:47;;;;;;;7.83;7.27;;;25.10;99.40;;;;;;6171669;23;20772;-70
2021/08/05 11:47:23;;;;;;;7.30;6.80;;;25.10;99.50;;;;;;6198786;23;20860;-70
2021/08/05 11:49:56;;;;;;;8.17;7.67;;;25.00;99.40;;;;;;6199116;23;20765;-70
2021/08/05 11:52:31;;;;;;;7.20;6.60;;;25.00;99.40;;;;;;6199762;23;20910;-70
2021/08/05 11:55:04;;;;;;;7.97;7.47;;;24.90;99.40;;;;;;6199649;23;20443;-69
2021/08/05 11:57:38;;;;;;;8.57;7.97;;;24.90;99.50;;;;;;6198106;23;20426;-70
2021/08/05 12:00:17;;;;;;;8.60;7.87;;;25.00;99.40;;;;;;6199146;23;20156;-70
2021/08/05 12:02:47;;;;;;;8.13;7.50;;;25.00;99.50;;;;;;6189287;23;20427;-70
2021/08/05 12:05:17;;;;;;;8.00;7.30;;;25.00;99.40;;;;;;6195370;23;20727;-70
2021/08/05 12:07:49;;;;;;;9.30;8.23;;;25.10;99.50;;;;;;6160846;23;20176;-70
2021/08/05 12:10:23;;;;;;;7.90;7.40;;;25.10;99.30;;;;;;6198243;23;20387;-70
2021/08/05 12:12:54;;;;;;;6.80;6.20;;;25.10;99.50;;;;;;6196747;23;20412;-70
2021/08/05 12:15:28;;;;;;;7.30;6.77;;;25.10;99.10;;;;;;6187055;23;20427;-70
2021/08/05 12:17:59;;;;;;;6.60;6.20;;;25.10;99.10;;;;;;6161256;23;20458;-70
2021/08/05 12:20:31;;;;;;;7.27;6.63;;;25.10;99.00;;;;;;6197230;23;20411;-70
2021/08/05 12:23:02;;;;;;;7.63;7.03;;;25.10;99.00;;;;;;6195287;23;20395;-70
2021/08/05 12:25:40;;;;;;;7.00;6.53;;;25.20;98.00;;;;;;6197696;23;20156;-70
2021/08/05 12:28:10;;;;;;;7.10;6.60;;;25.20;98.20;;;;;;6196598;23;20898;-70
2021/08/05 12:30:48;;;;;;;7.60;7.10;;;25.30;98.20;;;;;;6196873;23;20536;-70
2021/08/05 12:33:20;;;;;;;7.43;6.93;;;25.30;98.30;;;;;;6160819;23;20867;-70
2021/08/05 12:36:03;;;;;;;7.33;6.90;;;25.20;98.70;;;;;;6197836;23;20466;-70
2021/08/05 12:38:32;;;;;;;7.10;6.60;;;25.20;98.20;;;;;;6197116;23;20459;-70
2021/08/05 12:41:02;;;;;;;6.70;6.17;;;25.10;98.30;;;;;;6188324;23;20416;-70
2021/08/05 12:43:40;;;;;;;7.83;7.20;;;25.10;98.50;;;;;;6197776;23;20395;-70
2021/08/05 12:46:10;;;;;;;7.30;6.70;;;25.00;98.60;;;;;;6195879;23;20423;-70
2021/08/05 12:48:39;;;;;;;7.63;7.03;;;25.00;98.50;;;;;;6196273;23;20157;-70
2021/08/05 12:51:13;;;;;;;7.83;7.33;;;24.90;98.30;;;;;;6187151;23;20900;-70
2021/08/05 12:53:41;;;;;;;8.57;7.70;;;25.00;98.40;;;;;;6186944;23;20399;-70
2021/08/05 12:56:13;;;;;;;7.17;6.70;;;25.00;98.40;;;;;;6196256;23;20903;-70
2021/08/05 12:58:42;;;;;;;7.90;7.40;;;25.00;98.40;;;;;;6160708;23;20431;-70